Погода Чиденгуэлена неделю

Иньямбане, Мозамбик

22 - 28 февраля
  • 22февраля
    Сегодня
    +21°
    +34°
    Ясно и безоблачно
    ВремяПогодаТемператураВлажностьДавлениеВетер, м/сВероятность осадков
    02:00Ясно и безоблачно+23°C87 %751 мм2.8 м/с5 %
    05:00Ясно и безоблачно+22°C93 %752 мм2.0 м/с5 %
    08:00Ясно и безоблачно+26°C73 %753 мм1.6 м/с5 %
    11:00Практически безоблачно+31°C45 %752 мм0.9 м/с5 %
    14:00Ясно и безоблачно+34°C38 %750 мм2.3 м/с5 %
    17:00Ясно и безоблачно+30°C51 %751 мм5.2 м/с5 %
    20:00Облачно с прояснениями+26°C68 %752 мм3.6 м/с5 %
    23:00Облачно с прояснениями+24°C73 %753 мм3.1 м/с5 %
  • 23февраля
    Пятница
    +21°
    +35°
    Облачно с прояснениями
    ВремяПогодаТемператураВлажностьДавлениеВетер, м/сВероятность осадков
    02:00Ясно и безоблачно+22°C90 %752 мм2.7 м/с5 %
    05:00Ясно и безоблачно+21°C95 %752 мм1.5 м/с5 %
    08:00Практически безоблачно+26°C75 %754 мм1.8 м/с8 %
    11:00Практически безоблачно+31°C50 %753 мм0.8 м/с5 %
    14:00Облачно с прояснениями+34°C39 %751 мм2.0 м/с5 %
    17:00Ясно и безоблачно+31°C57 %751 мм4.9 м/с5 %
    20:00Небольшая облачность+26°C77 %752 мм4.0 м/с5 %
    23:00Ясно и безоблачно+25°C84 %753 мм3.3 м/с5 %
  • 24февраля
    Суббота
    +23°
    +38°
    Ясно и безоблачно
    ВремяПогодаТемператураВлажностьДавлениеВетер, м/сВероятность осадков
    02:00Ясно и безоблачно+23°C87 %753 мм2.9 м/с5 %
    05:00Ясно и безоблачно+22°C92 %753 мм2.0 м/с5 %
    08:00Ясно и безоблачно+26°C68 %754 мм2.0 м/с5 %
    11:00Ясно и безоблачно+32°C45 %753 мм1.5 м/с5 %
    14:00Ясно и безоблачно+37°C34 %751 мм1.2 м/с5 %
    17:00Ясно и безоблачно+35°C44 %750 мм4.4 м/с5 %
    20:00Ясно и безоблачно+28°C64 %751 мм4.7 м/с5 %
    23:00Ясно и безоблачно+26°C72 %751 мм4.6 м/с5 %
  • 25февраля
    Воскресенье
    +24°
    +39°
    Ясно и безоблачно
    ВремяПогодаТемператураВлажностьДавлениеВетер, м/сВероятность осадков
    02:00Ясно и безоблачно+25°C86 %751 мм4.2 м/с5 %
    05:00Ясно и безоблачно+24°C94 %751 мм3.4 м/с5 %
    08:00Ясно и безоблачно+28°C73 %752 мм3.6 м/с5 %
    11:00Ясно и безоблачно+35°C40 %751 мм3.0 м/с5 %
    14:00Ясно и безоблачно+38°C28 %749 мм2.0 м/с3 %
    17:00Ясно и безоблачно+37°C37 %748 мм4.0 м/с3 %
    20:00Ясно и безоблачно+30°C68 %750 мм4.5 м/с12 %
    23:00Ясно и безоблачно+27°C81 %751 мм3.9 м/с37 %
  • 26февраля
    Понедельник
    +22°
    +31°
    Пасмурно, дождь
    ВремяПогодаТемператураВлажностьДавлениеВетер, м/сВероятность осадков
    02:00Небольшая облачность и лёгкий дождик+25°C92 %751 мм2.0 м/с66 %
    05:00Пасмурно, небольшой дождь+26°C92 %751 мм1.7 м/с77 %
    08:00Небольшая облачность и лёгкий дождик+28°C73 %752 мм1.2 м/с81 %
    11:00Пасмурно, небольшой дождь+29°C61 %752 мм5.9 м/с75 %
    14:00Пасмурно, дождь+24°C89 %752 мм7.0 м/с58 %
    17:00Пасмурно, ливень+25°C85 %753 мм5.9 м/с50 %
    20:00Пасмурно, ливень+24°C87 %755 мм5.9 м/с68 %
    23:00Пасмурно, небольшой дождь+23°C86 %756 мм5.0 м/с73 %
Мы используем cookies
Соглашаюсь